sensor_id;sensor_type;location;lat;lon;timestamp;pressure;altitude;pressure_sealevel;temperature;humidity
34031;BME280;20319;28.466;-16.274;2023-07-16T10:58:42;95705.50;;;23.05;81.49
34031;BME280;20319;28.466;-16.274;2023-07-16T11:01:08;95712.47;;;23.44;79.60
34031;BME280;20319;28.466;-16.274;2023-07-16T11:08:26;95689.72;;;23.96;76.34
34031;BME280;20319;28.466;-16.274;2023-07-16T11:10:58;95735.53;;;24.20;74.76
34031;BME280;20319;28.466;-16.274;2023-07-16T11:13:41;95649.72;;;23.47;75.35
34031;BME280;20319;28.466;-16.274;2023-07-16T11:18:36;95654.38;;;23.47;75.70
34031;BME280;20319;28.466;-16.274;2023-07-16T11:21:03;95726.06;;;23.52;75.67
34031;BME280;20319;28.466;-16.274;2023-07-16T11:23:29;95640.16;;;23.00;77.25
34031;BME280;20319;28.466;-16.274;2023-07-16T11:25:54;95731.66;;;23.56;77.29
34031;BME280;20319;28.466;-16.274;2023-07-16T11:28:20;95532.38;;;22.15;76.93
34031;BME280;20319;28.466;-16.274;2023-07-16T11:30:47;95725.75;;;23.04;76.99
34031;BME280;20319;28.466;-16.274;2023-07-16T11:33:13;95764.63;;;23.09;76.61
34031;BME280;20319;28.466;-16.274;2023-07-16T11:35:39;95732.66;;;22.81;76.09
34031;BME280;20319;28.466;-16.274;2023-07-16T11:38:05;95617.63;;;22.04;75.24
34031;BME280;20319;28.466;-16.274;2023-07-16T11:40:34;95758.25;;;22.97;74.63
34031;BME280;20319;28.466;-16.274;2023-07-16T11:43:08;95762.47;;;22.94;75.54
34031;BME280;20319;28.466;-16.274;2023-07-16T11:45:35;95670.13;;;22.59;77.00
34031;BME280;20319;28.466;-16.274;2023-07-16T11:48:01;95605.06;;;22.40;76.92
34031;BME280;20319;28.466;-16.274;2023-07-16T11:50:28;95731.00;;;23.38;76.81
34031;BME280;20319;28.466;-16.274;2023-07-16T11:52:55;95664.94;;;23.15;75.87
34031;BME280;20319;28.466;-16.274;2023-07-16T11:55:22;95736.28;;;23.76;75.48
34031;BME280;20319;28.466;-16.274;2023-07-16T11:57:47;95571.63;;;22.72;73.77
34031;BME280;20319;28.466;-16.274;2023-07-16T12:00:13;95739.97;;;23.59;74.10
34031;BME280;20319;28.466;-16.274;2023-07-16T12:02:39;95575.28;;;22.56;73.48
34031;BME280;20319;28.466;-16.274;2023-07-16T12:05:05;95588.72;;;22.61;71.51
34031;BME280;20319;28.466;-16.274;2023-07-16T12:07:36;95744.28;;;23.81;71.43
34031;BME280;20319;28.466;-16.274;2023-07-16T12:10:04;95679.66;;;23.44;70.73
34031;BME280;20319;28.466;-16.274;2023-07-16T12:12:30;95640.75;;;23.26;71.18
34031;BME280;20319;28.466;-16.274;2023-07-16T12:14:56;95674.28;;;23.68;71.14
34031;BME280;20319;28.466;-16.274;2023-07-16T12:17:21;95583.66;;;23.45;70.43
34031;BME280;20319;28.466;-16.274;2023-07-16T12:19:47;95634.78;;;23.89;71.04
34031;BME280;20319;28.466;-16.274;2023-07-16T12:22:13;95712.97;;;24.47;70.93
34031;BME280;20319;28.466;-16.274;2023-07-16T12:24:41;95677.72;;;24.45;70.80
34031;BME280;20319;28.466;-16.274;2023-07-16T12:27:07;95723.16;;;24.70;70.36
34031;BME280;20319;28.466;-16.274;2023-07-16T12:29:32;95545.88;;;23.71;69.94
34031;BME280;20319;28.466;-16.274;2023-07-16T12:31:58;95564.69;;;23.85;70.01
34031;BME280;20319;28.466;-16.274;2023-07-16T12:34:25;95677.50;;;24.50;70.19
34031;BME280;20319;28.466;-16.274;2023-07-16T12:36:50;95738.25;;;24.77;70.57
34031;BME280;20319;28.466;-16.274;2023-07-16T12:39:16;95749.50;;;24.63;70.72
34031;BME280;20319;28.466;-16.274;2023-07-16T12:41:45;95612.72;;;24.06;70.82
34031;BME280;20319;28.466;-16.274;2023-07-16T12:44:10;95640.31;;;24.01;71.59
34031;BME280;20319;28.466;-16.274;2023-07-16T12:46:36;95535.69;;;23.03;71.41
34031;BME280;20319;28.466;-16.274;2023-07-16T12:49:01;95747.19;;;23.96;72.49
34031;BME280;20319;28.466;-16.274;2023-07-16T12:51:27;95586.00;;;22.61;74.20
34031;BME280;20319;28.466;-16.274;2023-07-16T12:53:53;95633.59;;;22.72;77.19
34031;BME280;20319;28.466;-16.274;2023-07-16T12:56:18;95631.97;;;22.21;79.65
34031;BME280;20319;28.466;-16.274;2023-07-16T12:58:44;95563.66;;;21.42;80.86
34031;BME280;20319;28.466;-16.274;2023-07-16T13:01:10;95713.22;;;22.16;82.16
34031;BME280;20319;28.466;-16.274;2023-07-16T13:03:35;95576.03;;;21.23;82.51
34031;BME280;20319;28.466;-16.274;2023-07-16T13:06:01;95739.66;;;22.24;81.34
34031;BME280;20319;28.466;-16.274;2023-07-16T13:08:29;95626.53;;;21.83;79.13
34031;BME280;20319;28.466;-16.274;2023-07-16T13:10:55;95727.75;;;22.66;77.42
34031;BME280;20319;28.466;-16.274;2023-07-16T13:13:20;95725.31;;;22.73;74.74
34031;BME280;20319;28.466;-16.274;2023-07-16T13:15:46;95653.38;;;22.40;73.89
34031;BME280;20319;28.466;-16.274;2023-07-16T13:18:12;95540.44;;;21.74;73.99
34031;BME280;20319;28.466;-16.274;2023-07-16T13:20:38;95719.09;;;22.93;70.85
34031;BME280;20319;28.466;-16.274;2023-07-16T13:23:04;95655.25;;;22.77;68.81
34031;BME280;20319;28.466;-16.274;2023-07-16T13:25:30;95697.09;;;23.10;68.77
34031;BME280;20319;28.466;-16.274;2023-07-16T13:27:56;95696.59;;;23.37;68.81
34031;BME280;20319;28.466;-16.274;2023-07-16T13:30:22;95731.84;;;23.71;69.90
34031;BME280;20319;28.466;-16.274;2023-07-16T13:32:48;95713.06;;;23.82;70.91
34031;BME280;20319;28.466;-16.274;2023-07-16T13:35:15;95651.81;;;23.62;70.22
34031;BME280;20319;28.466;-16.274;2023-07-16T13:37:41;95511.31;;;22.98;70.36
34031;BME280;20319;28.466;-16.274;2023-07-16T13:40:07;95587.88;;;23.43;69.82
34031;BME280;20319;28.466;-16.274;2023-07-16T13:42:33;95711.56;;;24.17;69.64
34031;BME280;20319;28.466;-16.274;2023-07-16T13:44:59;95685.38;;;23.83;70.00
34031;BME280;20319;28.466;-16.274;2023-07-16T13:47:25;95676.25;;;23.79;70.31
34031;BME280;20319;28.466;-16.274;2023-07-16T13:49:50;95625.59;;;23.61;70.44
34031;BME280;20319;28.466;-16.274;2023-07-16T13:52:16;95676.91;;;23.97;70.60
34031;BME280;20319;28.466;-16.274;2023-07-16T13:54:42;95506.97;;;22.97;70.97
34031;BME280;20319;28.466;-16.274;2023-07-16T13:57:08;95521.31;;;23.26;70.81
34031;BME280;20319;28.466;-16.274;2023-07-16T13:59:34;95479.00;;;23.00;71.05
34031;BME280;20319;28.466;-16.274;2023-07-16T14:02:00;95650.69;;;24.08;71.24
34031;BME280;20319;28.466;-16.274;2023-07-16T14:04:27;95612.25;;;24.04;70.98
34031;BME280;20319;28.466;-16.274;2023-07-16T14:06:53;95660.84;;;24.31;71.16
34031;BME280;20319;28.466;-16.274;2023-07-16T14:09:19;95493.84;;;23.23;71.38
34031;BME280;20319;28.466;-16.274;2023-07-16T14:11:45;95582.47;;;23.79;72.39
34031;BME280;20319;28.466;-16.274;2023-07-16T14:14:14;95540.75;;;23.70;71.93
34031;BME280;20319;28.466;-16.274;2023-07-16T14:16:39;95658.66;;;24.61;71.79
34031;BME280;20319;28.466;-16.274;2023-07-16T14:19:05;95686.72;;;24.94;71.39
34031;BME280;20319;28.466;-16.274;2023-07-16T14:21:30;95593.81;;;24.25;71.08
34031;BME280;20319;28.466;-16.274;2023-07-16T14:23:56;95545.41;;;23.81;72.28
34031;BME280;20319;28.466;-16.274;2023-07-16T14:26:22;95512.81;;;23.52;72.34
34031;BME280;20319;28.466;-16.274;2023-07-16T14:28:47;95605.22;;;24.03;72.89
34031;BME280;20319;28.466;-16.274;2023-07-16T14:31:13;95544.47;;;23.41;73.13
34031;BME280;20319;28.466;-16.274;2023-07-16T14:33:39;95624.81;;;23.61;74.08
34031;BME280;20319;28.466;-16.274;2023-07-16T14:36:05;95557.09;;;23.13;73.81
34031;BME280;20319;28.466;-16.274;2023-07-16T14:38:30;95650.81;;;23.67;74.08
34031;BME280;20319;28.466;-16.274;2023-07-16T14:40:56;95640.88;;;23.62;72.91
34031;BME280;20319;28.466;-16.274;2023-07-16T14:43:21;95655.69;;;23.61;72.74
34031;BME280;20319;28.466;-16.274;2023-07-16T14:45:47;95641.53;;;23.59;72.25
34031;BME280;20319;28.466;-16.274;2023-07-16T14:48:13;95589.63;;;23.26;71.73
34031;BME280;20319;28.466;-16.274;2023-07-16T14:50:39;95634.34;;;23.43;69.62
34031;BME280;20319;28.466;-16.274;2023-07-16T14:53:05;95493.97;;;22.41;68.54
34031;BME280;20319;28.466;-16.274;2023-07-16T14:55:30;95673.44;;;23.55;67.66
34031;BME280;20319;28.466;-16.274;2023-07-16T14:57:56;95630.31;;;23.40;68.49
34031;BME280;20319;28.466;-16.274;2023-07-16T15:00:23;95583.84;;;23.28;67.44
34031;BME280;20319;28.466;-16.274;2023-07-16T15:02:49;95552.38;;;23.22;67.66
34031;BME280;20319;28.466;-16.274;2023-07-16T15:05:14;95662.72;;;23.95;66.42
34031;BME280;20319;28.466;-16.274;2023-07-16T15:07:40;95666.56;;;24.14;66.31
34031;BME280;20319;28.466;-16.274;2023-07-16T15:10:07;95614.31;;;24.07;66.19
34031;BME280;20319;28.466;-16.274;2023-07-16T15:12:32;95687.22;;;24.84;65.96
34031;BME280;20319;28.466;-16.274;2023-07-16T15:14:58;95571.50;;;24.63;65.55
34031;BME280;20319;28.466;-16.274;2023-07-16T15:17:24;95678.88;;;25.72;64.74
34031;BME280;20319;28.466;-16.274;2023-07-16T15:19:51;95575.72;;;25.40;64.24
34031;BME280;20319;28.466;-16.274;2023-07-16T15:22:17;95665.22;;;26.34;63.18
34031;BME280;20319;28.466;-16.274;2023-07-16T15:24:48;95652.47;;;26.42;62.76
34031;BME280;20319;28.466;-16.274;2023-07-16T15:27:15;95590.59;;;26.13;62.50
34031;BME280;20319;28.466;-16.274;2023-07-16T15:29:40;95651.81;;;26.79;62.42
34031;BME280;20319;28.466;-16.274;2023-07-16T15:32:06;95572.13;;;26.45;61.87
34031;BME280;20319;28.466;-16.274;2023-07-16T15:34:32;95626.66;;;26.77;61.37
34031;BME280;20319;28.466;-16.274;2023-07-16T15:36:57;95599.16;;;26.27;62.09
34031;BME280;20319;28.466;-16.274;2023-07-16T15:39:23;95610.91;;;25.81;63.04
34031;BME280;20319;28.466;-16.274;2023-07-16T15:41:49;95639.81;;;25.63;64.80
34031;BME280;20319;28.466;-16.274;2023-07-16T15:44:15;95565.00;;;24.80;65.94
34031;BME280;20319;28.466;-16.274;2023-07-16T15:46:42;95584.84;;;24.77;67.20
34031;BME280;20319;28.466;-16.274;2023-07-16T15:49:07;95438.66;;;23.78;67.70
34031;BME280;20319;28.466;-16.274;2023-07-16T15:51:33;95528.56;;;24.15;68.18
34031;BME280;20319;28.466;-16.274;2023-07-16T15:54:01;95635.53;;;24.70;68.41
34031;BME280;20319;28.466;-16.274;2023-07-16T15:56:27;95485.72;;;23.47;68.26
34031;BME280;20319;28.466;-16.274;2023-07-16T15:58:52;95646.34;;;24.31;69.05
34031;BME280;20319;28.466;-16.274;2023-07-16T16:01:18;95431.06;;;22.90;69.80
34031;BME280;20319;28.466;-16.274;2023-07-16T16:03:44;95550.66;;;23.17;70.43
34031;BME280;20319;28.466;-16.274;2023-07-16T16:06:11;95403.69;;;22.13;71.43
34031;BME280;20319;28.466;-16.274;2023-07-16T16:08:36;95522.09;;;22.62;71.28
34031;BME280;20319;28.466;-16.274;2023-07-16T16:11:03;95646.81;;;23.31;71.69
34031;BME280;20319;28.466;-16.274;2023-07-16T16:13:29;95529.25;;;22.46;72.65
34031;BME280;20319;28.466;-16.274;2023-07-16T16:15:55;95448.56;;;21.95;73.45
34031;BME280;20319;28.466;-16.274;2023-07-16T16:18:22;95532.72;;;22.34;73.67
34031;BME280;20319;28.466;-16.274;2023-07-16T16:20:48;95608.25;;;22.71;74.49
34031;BME280;20319;28.466;-16.274;2023-07-16T16:23:14;95629.16;;;22.88;74.20
34031;BME280;20319;28.466;-16.274;2023-07-16T16:25:40;95489.31;;;22.21;73.39
34031;BME280;20319;28.466;-16.274;2023-07-16T16:28:07;95634.59;;;23.29;73.36
34031;BME280;20319;28.466;-16.274;2023-07-16T16:30:34;95649.03;;;23.50;73.27
34031;BME280;20319;28.466;-16.274;2023-07-16T16:33:01;95595.06;;;23.59;73.12
34031;BME280;20319;28.466;-16.274;2023-07-16T16:35:31;95609.28;;;23.97;71.95
34031;BME280;20319;28.466;-16.274;2023-07-16T16:37:57;95632.56;;;24.15;70.83
34031;BME280;20319;28.466;-16.274;2023-07-16T16:40:23;95532.22;;;23.71;70.67
34031;BME280;20319;28.466;-16.274;2023-07-16T16:42:48;95457.97;;;23.24;70.61
34031;BME280;20319;28.466;-16.274;2023-07-16T16:45:14;95499.28;;;23.68;70.81
34031;BME280;20319;28.466;-16.274;2023-07-16T16:47:40;95484.56;;;23.48;71.01
34031;BME280;20319;28.466;-16.274;2023-07-16T16:50:06;95493.22;;;23.38;72.49
34031;BME280;20319;28.466;-16.274;2023-07-16T16:52:33;95532.94;;;23.35;74.19
34031;BME280;20319;28.466;-16.274;2023-07-16T16:55:00;95484.94;;;23.14;73.91
34031;BME280;20319;28.466;-16.274;2023-07-16T16:57:26;95467.19;;;23.08;73.96
34031;BME280;20319;28.466;-16.274;2023-07-16T16:59:52;95609.88;;;24.03;74.35
34031;BME280;20319;28.466;-16.274;2023-07-16T17:02:19;95484.81;;;22.98;73.72
34031;BME280;20319;28.466;-16.274;2023-07-16T17:04:45;95492.94;;;22.54;74.74
34031;BME280;20319;28.466;-16.274;2023-07-16T17:07:11;95546.88;;;22.57;75.65
34031;BME280;20319;28.466;-16.274;2023-07-16T17:09:37;95587.47;;;22.79;76.86
34031;BME280;20319;28.466;-16.274;2023-07-16T17:12:03;95474.44;;;21.89;78.06
34031;BME280;20319;28.466;-16.274;2023-07-16T17:14:29;95514.41;;;22.35;79.30
34031;BME280;20319;28.466;-16.274;2023-07-16T17:16:55;95592.44;;;22.97;79.26
34031;BME280;20319;28.466;-16.274;2023-07-16T17:19:22;95578.63;;;23.14;78.95
34031;BME280;20319;28.466;-16.274;2023-07-16T17:21:48;95472.41;;;22.68;78.18
34031;BME280;20319;28.466;-16.274;2023-07-16T17:24:13;95555.28;;;23.50;77.83
34031;BME280;20319;28.466;-16.274;2023-07-16T17:26:40;95469.91;;;23.08;75.35
34031;BME280;20319;28.466;-16.274;2023-07-16T17:29:06;95587.25;;;23.70;74.04
34031;BME280;20319;28.466;-16.274;2023-07-16T17:31:33;95605.50;;;23.45;73.85
34031;BME280;20319;28.466;-16.274;2023-07-16T17:34:02;95483.19;;;22.44;74.67
34031;BME280;20319;28.466;-16.274;2023-07-16T17:36:28;95590.75;;;23.05;75.74
34031;BME280;20319;28.466;-16.274;2023-07-16T17:38:54;95441.22;;;22.16;76.62
34031;BME280;20319;28.466;-16.274;2023-07-16T17:41:19;95543.91;;;22.82;76.14
34031;BME280;20319;28.466;-16.274;2023-07-16T17:43:45;95589.31;;;23.07;76.82
34031;BME280;20319;28.466;-16.274;2023-07-16T17:46:12;95582.69;;;23.29;77.41
34031;BME280;20319;28.466;-16.274;2023-07-16T17:48:37;95394.94;;;22.40;76.93
34031;BME280;20319;28.466;-16.274;2023-07-16T17:51:03;95479.28;;;23.19;75.92
34031;BME280;20319;28.466;-16.274;2023-07-16T17:53:30;95465.38;;;23.24;74.73
34031;BME280;20319;28.466;-16.274;2023-07-16T17:55:55;95555.44;;;23.89;74.15
34031;BME280;20319;28.466;-16.274;2023-07-16T17:58:21;95482.38;;;23.29;73.76
34031;BME280;20319;28.466;-16.274;2023-07-16T18:00:47;95570.72;;;23.66;74.36
34031;BME280;20319;28.466;-16.274;2023-07-16T18:03:13;95485.09;;;22.85;75.14
34031;BME280;20319;28.466;-16.274;2023-07-16T18:05:39;95403.97;;;22.20;76.08
34031;BME280;20319;28.466;-16.274;2023-07-16T18:08:05;95550.44;;;22.90;76.96
34031;BME280;20319;28.466;-16.274;2023-07-16T18:10:32;95451.38;;;22.28;77.22
34031;BME280;20319;28.466;-16.274;2023-07-16T18:12:58;95465.22;;;22.23;78.27
34031;BME280;20319;28.466;-16.274;2023-07-16T18:15:23;95513.81;;;22.29;79.20
34031;BME280;20319;28.466;-16.274;2023-07-16T18:17:49;95465.06;;;21.78;80.20
34031;BME280;20319;28.466;-16.274;2023-07-16T18:20:14;95541.53;;;22.11;81.62
34031;BME280;20319;28.466;-16.274;2023-07-16T18:22:40;95449.88;;;21.39;82.16
34031;BME280;20319;28.466;-16.274;2023-07-16T18:25:06;95579.47;;;22.24;82.73
34031;BME280;20319;28.466;-16.274;2023-07-16T18:27:33;95402.69;;;21.18;82.83
34031;BME280;20319;28.466;-16.274;2023-07-16T18:29:59;95566.91;;;22.32;82.83
34031;BME280;20319;28.466;-16.274;2023-07-16T18:32:25;95312.88;;;20.72;82.34
34031;BME280;20319;28.466;-16.274;2023-07-16T18:34:51;95533.03;;;22.12;82.25
34031;BME280;20319;28.466;-16.274;2023-07-16T18:37:17;95521.50;;;22.07;82.57
34031;BME280;20319;28.466;-16.274;2023-07-16T18:39:46;95466.53;;;21.75;82.50
34031;BME280;20319;28.466;-16.274;2023-07-16T18:42:12;95569.19;;;22.30;82.62
34031;BME280;20319;28.466;-16.274;2023-07-16T18:44:39;95459.53;;;21.57;82.72
34031;BME280;20319;28.466;-16.274;2023-07-16T18:47:04;95451.22;;;21.54;82.94
34031;BME280;20319;28.466;-16.274;2023-07-16T18:49:30;95341.94;;;20.97;82.92
34031;BME280;20319;28.466;-16.274;2023-07-16T18:51:56;95476.78;;;21.78;82.80
34031;BME280;20319;28.466;-16.274;2023-07-16T18:54:21;95316.72;;;20.71;83.02
34031;BME280;20319;28.466;-16.274;2023-07-16T18:56:47;95588.00;;;22.23;83.61
34031;BME280;20319;28.466;-16.274;2023-07-16T18:59:13;95386.41;;;21.01;84.07
34031;BME280;20319;28.466;-16.274;2023-07-16T19:01:38;95552.63;;;22.06;84.37
34031;BME280;20319;28.466;-16.274;2023-07-16T19:04:04;95535.25;;;21.89;84.20
34031;BME280;20319;28.466;-16.274;2023-07-16T19:06:32;95369.56;;;20.70;83.94
34031;BME280;20319;28.466;-16.274;2023-07-16T19:08:57;95373.91;;;20.63;84.11
34031;BME280;20319;28.466;-16.274;2023-07-16T19:11:23;95465.38;;;20.93;84.72
34031;BME280;20319;28.466;-16.274;2023-07-16T19:13:49;95509.75;;;21.10;85.95
34031;BME280;20319;28.466;-16.274;2023-07-16T19:16:15;95500.47;;;20.86;86.89
34031;BME280;20319;28.466;-16.274;2023-07-16T19:18:40;95449.81;;;20.38;87.41
34031;BME280;20319;28.466;-16.274;2023-07-16T19:21:06;95602.16;;;21.15;88.67
34031;BME280;20319;28.466;-16.274;2023-07-16T19:23:32;95554.13;;;20.77;89.35
34031;BME280;20319;28.466;-16.274;2023-07-16T19:25:57;95576.84;;;20.89;90.26
34031;BME280;20319;28.466;-16.274;2023-07-16T19:28:23;95510.28;;;20.35;90.94
34031;BME280;20319;28.466;-16.274;2023-07-16T19:30:48;95580.38;;;20.73;91.84
34031;BME280;20319;28.466;-16.274;2023-07-16T19:33:14;95485.91;;;19.88;91.85
34031;BME280;20319;28.466;-16.274;2023-07-16T19:35:40;95520.47;;;20.13;91.94
34031;BME280;20319;28.466;-16.274;2023-07-16T19:38:06;95620.72;;;20.62;92.30
34031;BME280;20319;28.466;-16.274;2023-07-16T19:40:31;95493.06;;;19.84;92.48
34031;BME280;20319;28.466;-16.274;2023-07-16T19:42:57;95598.16;;;20.53;92.88
34031;BME280;20319;28.466;-16.274;2023-07-16T19:45:23;95626.47;;;20.61;92.66
34031;BME280;20319;28.466;-16.274;2023-07-16T19:47:49;95406.44;;;19.17;93.29
34031;BME280;20319;28.466;-16.274;2023-07-16T19:50:15;95606.13;;;20.41;93.79
34031;BME280;20319;28.466;-16.274;2023-07-16T19:52:41;95622.31;;;20.54;94.61
34031;BME280;20319;28.466;-16.274;2023-07-16T19:55:07;95507.94;;;19.78;95.54
34031;BME280;20319;28.466;-16.274;2023-07-16T19:57:32;95643.41;;;20.49;96.40
34031;BME280;20319;28.466;-16.274;2023-07-16T20:00:03;95655.44;;;20.48;97.35
34031;BME280;20319;28.466;-16.274;2023-07-16T20:02:30;95571.63;;;20.11;97.39
34031;BME280;20319;28.466;-16.274;2023-07-16T20:04:59;95376.47;;;18.83;96.99
34031;BME280;20319;28.466;-16.274;2023-07-16T20:07:24;95582.19;;;20.04;95.41
34031;BME280;20319;28.466;-16.274;2023-07-16T20:09:50;95412.41;;;18.89;94.77
34031;BME280;20319;28.466;-16.274;2023-07-16T20:12:17;95459.47;;;19.15;95.20
34031;BME280;20319;28.466;-16.274;2023-07-16T20:14:45;95561.97;;;19.79;95.43
34031;BME280;20319;28.466;-16.274;2023-07-16T20:17:11;95417.34;;;18.87;95.83
34031;BME280;20319;28.466;-16.274;2023-07-16T20:19:36;95545.34;;;19.81;96.25
34031;BME280;20319;28.466;-16.274;2023-07-16T20:22:02;95374.44;;;18.58;96.21
34031;BME280;20319;28.466;-16.274;2023-07-16T20:24:28;95498.53;;;19.36;95.03
34031;BME280;20319;28.466;-16.274;2023-07-16T20:26:54;95575.38;;;19.76;93.57
34031;BME280;20319;28.466;-16.274;2023-07-16T20:29:20;95531.94;;;19.37;92.38
34031;BME280;20319;28.466;-16.274;2023-07-16T20:31:45;95484.03;;;19.10;91.04
34031;BME280;20319;28.466;-16.274;2023-07-16T20:34:11;95619.53;;;19.81;91.12
34031;BME280;20319;28.466;-16.274;2023-07-16T20:36:36;95390.63;;;18.41;90.08
34031;BME280;20319;28.466;-16.274;2023-07-16T20:39:02;95641.81;;;20.00;90.19
34031;BME280;20319;28.466;-16.274;2023-07-16T20:41:28;95566.81;;;19.52;89.71
34031;BME280;20319;28.466;-16.274;2023-07-16T20:43:53;95594.69;;;19.66;90.28
34031;BME280;20319;28.466;-16.274;2023-07-16T20:46:19;95638.75;;;19.93;90.53
34031;BME280;20319;28.466;-16.274;2023-07-16T20:48:44;95595.00;;;19.64;90.43
34031;BME280;20319;28.466;-16.274;2023-07-16T20:51:10;95599.69;;;19.72;90.88
34031;BME280;20319;28.466;-16.274;2023-07-16T20:53:36;95528.97;;;19.25;91.23
34031;BME280;20319;28.466;-16.274;2023-07-16T20:56:02;95605.41;;;19.71;91.78
34031;BME280;20319;28.466;-16.274;2023-07-16T20:58:28;95541.81;;;19.33;92.17
34031;BME280;20319;28.466;-16.274;2023-07-16T21:00:54;95535.00;;;19.22;92.88
34031;BME280;20319;28.466;-16.274;2023-07-16T21:03:20;95610.69;;;19.67;93.61
34031;BME280;20319;28.466;-16.274;2023-07-16T21:05:45;95509.03;;;18.98;93.48
34031;BME280;20319;28.466;-16.274;2023-07-16T21:08:11;95653.09;;;19.77;93.98
34031;BME280;20319;28.466;-16.274;2023-07-16T21:10:37;95540.72;;;19.11;94.30
34031;BME280;20319;28.466;-16.274;2023-07-16T21:13:02;95673.44;;;19.88;94.34
34031;BME280;20319;28.466;-16.274;2023-07-16T21:15:30;95525.53;;;19.10;94.65
34031;BME280;20319;28.466;-16.274;2023-07-16T21:18:00;95435.16;;;18.49;95.21
34031;BME280;20319;28.466;-16.274;2023-07-16T21:20:27;95538.63;;;19.08;95.43
34031;BME280;20319;28.466;-16.274;2023-07-16T21:22:54;95487.38;;;18.76;95.56
34031;BME280;20319;28.466;-16.274;2023-07-16T21:25:20;95499.81;;;18.77;94.97
34031;BME280;20319;28.466;-16.274;2023-07-16T21:27:48;95671.66;;;19.83;95.56
34031;BME280;20319;28.466;-16.274;2023-07-16T21:30:14;95621.75;;;19.49;95.78
34031;BME280;20319;28.466;-16.274;2023-07-16T21:32:40;95582.84;;;19.09;96.10
34031;BME280;20319;28.466;-16.274;2023-07-16T21:35:06;95623.00;;;19.43;96.73
34031;BME280;20319;28.466;-16.274;2023-07-16T21:37:32;95671.78;;;19.78;96.74
34031;BME280;20319;28.466;-16.274;2023-07-16T21:39:59;95579.50;;;19.12;97.33
34031;BME280;20319;28.466;-16.274;2023-07-16T21:42:25;95546.53;;;18.96;97.21
34031;BME280;20319;28.466;-16.274;2023-07-16T21:44:50;95563.38;;;19.07;97.36
34031;BME280;20319;28.466;-16.274;2023-07-16T21:47:16;95518.63;;;18.74;97.52
34031;BME280;20319;28.466;-16.274;2023-07-16T21:49:42;95538.28;;;18.79;98.16
34031;BME280;20319;28.466;-16.274;2023-07-16T21:52:09;95644.94;;;19.46;98.87
34031;BME280;20319;28.466;-16.274;2023-07-16T21:54:35;95585.75;;;19.12;98.87
34031;BME280;20319;28.466;-16.274;2023-07-16T21:57:03;95439.31;;;18.24;98.75
34031;BME280;20319;28.466;-16.274;2023-07-16T21:59:29;95673.00;;;19.64;99.28
34031;BME280;20319;28.466;-16.274;2023-07-16T22:01:56;95513.16;;;18.65;99.36
34031;BME280;20319;28.466;-16.274;2023-07-16T22:04:22;95530.59;;;18.73;99.63
34031;BME280;20319;28.466;-16.274;2023-07-16T22:06:48;95671.03;;;19.56;100.00
34031;BME280;20319;28.466;-16.274;2023-07-16T22:09:14;95591.00;;;19.09;100.00
34031;BME280;20319;28.466;-16.274;2023-07-16T22:11:40;95625.19;;;19.10;100.00
34031;BME280;20319;28.466;-16.274;2023-07-16T22:14:06;95556.16;;;18.80;100.00
34031;BME280;20319;28.466;-16.274;2023-07-16T22:16:33;95700.03;;;19.69;100.00
34031;BME280;20319;28.466;-16.274;2023-07-16T22:19:03;95698.41;;;19.68;100.00
34031;BME280;20319;28.466;-16.274;2023-07-16T22:21:33;95704.97;;;19.67;100.00
34031;BME280;20319;28.466;-16.274;2023-07-16T22:23:58;95470.00;;;18.20;99.77
34031;BME280;20319;28.466;-16.274;2023-07-16T22:26:24;95570.22;;;18.82;99.60
34031;BME280;20319;28.466;-16.274;2023-07-16T22:28:51;95539.16;;;18.66;99.21
34031;BME280;20319;28.466;-16.274;2023-07-16T22:31:16;95655.84;;;19.33;99.55
34031;BME280;20319;28.466;-16.274;2023-07-16T22:33:42;95573.88;;;18.78;100.00
34031;BME280;20319;28.466;-16.274;2023-07-16T22:36:09;95697.13;;;19.65;100.00
34031;BME280;20319;28.466;-16.274;2023-07-16T22:38:34;95510.75;;;18.42;100.00
34031;BME280;20319;28.466;-16.274;2023-07-16T22:41:00;95614.88;;;18.98;100.00
34031;BME280;20319;28.466;-16.274;2023-07-16T22:43:26;95576.03;;;18.89;100.00
34031;BME280;20319;28.466;-16.274;2023-07-16T22:45:51;95508.53;;;18.30;100.00
34031;BME280;20319;28.466;-16.274;2023-07-16T22:48:17;95674.41;;;19.31;100.00
34031;BME280;20319;28.466;-16.274;2023-07-16T22:50:46;95660.31;;;19.29;100.00
34031;BME280;20319;28.466;-16.274;2023-07-16T22:53:12;95572.72;;;18.70;100.00
34031;BME280;20319;28.466;-16.274;2023-07-16T22:55:39;95710.66;;;19.57;100.00
34031;BME280;20319;28.466;-16.274;2023-07-16T22:58:05;95586.13;;;18.75;100.00
